sensor_id;sensor_type;location;lat;lon;timestamp;P1;durP1;ratioP1;P2;durP2;ratioP2
14817;SDS011;7500;57.698;11.986;2023-12-20T00:02:21;12.07;;;2.40;;
14817;SDS011;7500;57.698;11.986;2023-12-20T00:04:47;15.50;;;3.37;;
14817;SDS011;7500;57.698;11.986;2023-12-20T00:07:14;16.50;;;2.87;;
14817;SDS011;7500;57.698;11.986;2023-12-20T00:09:40;21.23;;;3.47;;
14817;SDS011;7500;57.698;11.986;2023-12-20T00:12:07;17.47;;;2.90;;
14817;SDS011;7500;57.698;11.986;2023-12-20T00:14:33;15.93;;;2.90;;
14817;SDS011;7500;57.698;11.986;2023-12-20T00:17:00;13.93;;;2.50;;
14817;SDS011;7500;57.698;11.986;2023-12-20T00:19:28;14.47;;;3.00;;
14817;SDS011;7500;57.698;11.986;2023-12-20T00:21:54;13.47;;;2.57;;
14817;SDS011;7500;57.698;11.986;2023-12-20T00:24:21;12.57;;;2.77;;
14817;SDS011;7500;57.698;11.986;2023-12-20T00:26:47;14.07;;;3.10;;
14817;SDS011;7500;57.698;11.986;2023-12-20T00:29:14;16.57;;;3.00;;
14817;SDS011;7500;57.698;11.986;2023-12-20T00:31:40;11.43;;;2.47;;
14817;SDS011;7500;57.698;11.986;2023-12-20T00:34:07;19.90;;;3.33;;
14817;SDS011;7500;57.698;11.986;2023-12-20T00:36:35;18.00;;;3.40;;
14817;SDS011;7500;57.698;11.986;2023-12-20T00:39:01;15.40;;;2.80;;
14817;SDS011;7500;57.698;11.986;2023-12-20T00:41:28;12.33;;;2.60;;
14817;SDS011;7500;57.698;11.986;2023-12-20T00:43:55;15.77;;;3.37;;
14817;SDS011;7500;57.698;11.986;2023-12-20T00:46:21;12.97;;;3.30;;
14817;SDS011;7500;57.698;11.986;2023-12-20T00:48:48;14.23;;;2.77;;
14817;SDS011;7500;57.698;11.986;2023-12-20T00:51:14;18.47;;;3.07;;
14817;SDS011;7500;57.698;11.986;2023-12-20T00:53:42;15.50;;;2.90;;
14817;SDS011;7500;57.698;11.986;2023-12-20T00:56:09;13.97;;;2.87;;
14817;SDS011;7500;57.698;11.986;2023-12-20T00:58:35;17.93;;;3.47;;
14817;SDS011;7500;57.698;11.986;2023-12-20T01:01:02;16.23;;;2.80;;
14817;SDS011;7500;57.698;11.986;2023-12-20T01:03:28;17.67;;;3.43;;
14817;SDS011;7500;57.698;11.986;2023-12-20T01:05:55;16.90;;;3.23;;
14817;SDS011;7500;57.698;11.986;2023-12-20T01:08:22;18.37;;;3.83;;
14817;SDS011;7500;57.698;11.986;2023-12-20T01:10:50;12.83;;;2.50;;
14817;SDS011;7500;57.698;11.986;2023-12-20T01:13:16;15.50;;;2.87;;
14817;SDS011;7500;57.698;11.986;2023-12-20T01:15:42;18.23;;;2.63;;
14817;SDS011;7500;57.698;11.986;2023-12-20T01:18:08;19.03;;;3.33;;
14817;SDS011;7500;57.698;11.986;2023-12-20T01:20:35;15.10;;;2.77;;
14817;SDS011;7500;57.698;11.986;2023-12-20T01:23:01;11.70;;;2.70;;
14817;SDS011;7500;57.698;11.986;2023-12-20T01:25:28;13.07;;;3.23;;
14817;SDS011;7500;57.698;11.986;2023-12-20T01:27:56;18.80;;;2.83;;
14817;SDS011;7500;57.698;11.986;2023-12-20T01:30:22;13.97;;;2.63;;
14817;SDS011;7500;57.698;11.986;2023-12-20T01:32:49;15.37;;;2.90;;
14817;SDS011;7500;57.698;11.986;2023-12-20T01:35:16;14.97;;;2.70;;
14817;SDS011;7500;57.698;11.986;2023-12-20T01:37:42;14.40;;;2.97;;
14817;SDS011;7500;57.698;11.986;2023-12-20T01:40:09;17.43;;;3.33;;
14817;SDS011;7500;57.698;11.986;2023-12-20T01:42:36;11.70;;;2.43;;
14817;SDS011;7500;57.698;11.986;2023-12-20T01:45:04;12.47;;;2.30;;
14817;SDS011;7500;57.698;11.986;2023-12-20T01:47:31;16.13;;;2.83;;
14817;SDS011;7500;57.698;11.986;2023-12-20T01:49:58;14.83;;;2.73;;
14817;SDS011;7500;57.698;11.986;2023-12-20T01:52:24;14.77;;;3.20;;
14817;SDS011;7500;57.698;11.986;2023-12-20T01:54:52;13.23;;;2.43;;
14817;SDS011;7500;57.698;11.986;2023-12-20T01:57:20;17.63;;;2.70;;
14817;SDS011;7500;57.698;11.986;2023-12-20T01:59:46;18.77;;;3.37;;
14817;SDS011;7500;57.698;11.986;2023-12-20T02:02:14;13.60;;;2.80;;
14817;SDS011;7500;57.698;11.986;2023-12-20T02:04:41;20.47;;;3.30;;
14817;SDS011;7500;57.698;11.986;2023-12-20T02:07:08;13.90;;;3.00;;
14817;SDS011;7500;57.698;11.986;2023-12-20T02:09:35;11.67;;;2.77;;
14817;SDS011;7500;57.698;11.986;2023-12-20T02:12:03;13.00;;;2.67;;
14817;SDS011;7500;57.698;11.986;2023-12-20T02:14:29;14.27;;;2.63;;
14817;SDS011;7500;57.698;11.986;2023-12-20T02:16:56;18.07;;;3.10;;
14817;SDS011;7500;57.698;11.986;2023-12-20T02:19:24;13.00;;;2.87;;
14817;SDS011;7500;57.698;11.986;2023-12-20T02:21:52;11.83;;;2.33;;
14817;SDS011;7500;57.698;11.986;2023-12-20T02:24:30;17.53;;;2.50;;
14817;SDS011;7500;57.698;11.986;2023-12-20T02:26:57;7.60;;;2.00;;
14817;SDS011;7500;57.698;11.986;2023-12-20T02:29:23;11.90;;;2.43;;
14817;SDS011;7500;57.698;11.986;2023-12-20T02:31:50;12.93;;;2.97;;
14817;SDS011;7500;57.698;11.986;2023-12-20T02:34:17;15.63;;;3.10;;
14817;SDS011;7500;57.698;11.986;2023-12-20T02:36:43;16.33;;;2.97;;
14817;SDS011;7500;57.698;11.986;2023-12-20T02:39:11;13.37;;;2.93;;
14817;SDS011;7500;57.698;11.986;2023-12-20T02:41:38;16.23;;;3.07;;
14817;SDS011;7500;57.698;11.986;2023-12-20T02:44:04;16.67;;;3.03;;
14817;SDS011;7500;57.698;11.986;2023-12-20T02:46:31;15.40;;;2.77;;
14817;SDS011;7500;57.698;11.986;2023-12-20T02:48:57;13.27;;;2.53;;
14817;SDS011;7500;57.698;11.986;2023-12-20T02:51:24;15.70;;;2.73;;
14817;SDS011;7500;57.698;11.986;2023-12-20T02:53:50;18.70;;;3.37;;
14817;SDS011;7500;57.698;11.986;2023-12-20T02:56:18;15.43;;;2.90;;
14817;SDS011;7500;57.698;11.986;2023-12-20T02:58:45;16.30;;;3.03;;
14817;SDS011;7500;57.698;11.986;2023-12-20T03:01:11;15.70;;;2.77;;
14817;SDS011;7500;57.698;11.986;2023-12-20T03:03:38;15.23;;;2.77;;
14817;SDS011;7500;57.698;11.986;2023-12-20T03:06:04;12.80;;;2.90;;
14817;SDS011;7500;57.698;11.986;2023-12-20T03:08:31;14.80;;;2.90;;
14817;SDS011;7500;57.698;11.986;2023-12-20T03:10:58;12.23;;;2.73;;
14817;SDS011;7500;57.698;11.986;2023-12-20T03:13:26;15.40;;;2.83;;
14817;SDS011;7500;57.698;11.986;2023-12-20T03:15:53;7.90;;;2.23;;
14817;SDS011;7500;57.698;11.986;2023-12-20T03:18:19;9.27;;;2.03;;
14817;SDS011;7500;57.698;11.986;2023-12-20T03:20:46;9.77;;;2.73;;
14817;SDS011;7500;57.698;11.986;2023-12-20T03:23:15;14.10;;;2.27;;
14817;SDS011;7500;57.698;11.986;2023-12-20T03:25:41;13.90;;;2.43;;
14817;SDS011;7500;57.698;11.986;2023-12-20T03:28:08;12.83;;;2.47;;
14817;SDS011;7500;57.698;11.986;2023-12-20T03:30:35;11.83;;;2.77;;
14817;SDS011;7500;57.698;11.986;2023-12-20T03:33:02;15.33;;;2.60;;
14817;SDS011;7500;57.698;11.986;2023-12-20T03:35:29;11.17;;;2.33;;
14817;SDS011;7500;57.698;11.986;2023-12-20T03:37:55;11.53;;;2.53;;
14817;SDS011;7500;57.698;11.986;2023-12-20T03:40:22;11.67;;;2.47;;
14817;SDS011;7500;57.698;11.986;2023-12-20T03:42:48;13.43;;;2.57;;
14817;SDS011;7500;57.698;11.986;2023-12-20T03:45:15;15.23;;;2.60;;
14817;SDS011;7500;57.698;11.986;2023-12-20T03:47:43;11.10;;;2.00;;
14817;SDS011;7500;57.698;11.986;2023-12-20T03:50:09;9.80;;;2.00;;
14817;SDS011;7500;57.698;11.986;2023-12-20T03:52:36;13.13;;;2.27;;
14817;SDS011;7500;57.698;11.986;2023-12-20T03:55:02;12.23;;;1.60;;
14817;SDS011;7500;57.698;11.986;2023-12-20T03:57:29;7.53;;;1.80;;
14817;SDS011;7500;57.698;11.986;2023-12-20T03:59:55;11.40;;;1.83;;
14817;SDS011;7500;57.698;11.986;2023-12-20T04:02:22;7.77;;;1.67;;
14817;SDS011;7500;57.698;11.986;2023-12-20T04:04:50;11.83;;;2.13;;
14817;SDS011;7500;57.698;11.986;2023-12-20T04:07:18;8.77;;;1.83;;
14817;SDS011;7500;57.698;11.986;2023-12-20T04:09:44;8.93;;;2.00;;
14817;SDS011;7500;57.698;11.986;2023-12-20T04:12:12;8.20;;;1.70;;
14817;SDS011;7500;57.698;11.986;2023-12-20T04:14:38;10.17;;;2.00;;
14817;SDS011;7500;57.698;11.986;2023-12-20T04:17:05;17.47;;;2.47;;
14817;SDS011;7500;57.698;11.986;2023-12-20T04:19:31;11.13;;;2.00;;
14817;SDS011;7500;57.698;11.986;2023-12-20T04:21:59;10.20;;;2.20;;
14817;SDS011;7500;57.698;11.986;2023-12-20T04:24:25;9.87;;;1.67;;
14817;SDS011;7500;57.698;11.986;2023-12-20T04:26:52;6.13;;;1.50;;
14817;SDS011;7500;57.698;11.986;2023-12-20T04:29:19;9.37;;;1.80;;
14817;SDS011;7500;57.698;11.986;2023-12-20T04:31:45;10.87;;;1.93;;
14817;SDS011;7500;57.698;11.986;2023-12-20T04:34:12;11.37;;;1.83;;
14817;SDS011;7500;57.698;11.986;2023-12-20T04:36:38;9.93;;;1.90;;
14817;SDS011;7500;57.698;11.986;2023-12-20T04:39:06;9.70;;;1.93;;
14817;SDS011;7500;57.698;11.986;2023-12-20T04:41:33;11.80;;;2.00;;
14817;SDS011;7500;57.698;11.986;2023-12-20T04:43:59;7.70;;;1.60;;
14817;SDS011;7500;57.698;11.986;2023-12-20T04:46:26;10.80;;;2.10;;
14817;SDS011;7500;57.698;11.986;2023-12-20T04:48:52;10.43;;;1.80;;
14817;SDS011;7500;57.698;11.986;2023-12-20T04:51:19;11.10;;;2.50;;
14817;SDS011;7500;57.698;11.986;2023-12-20T04:53:45;8.40;;;1.70;;
14817;SDS011;7500;57.698;11.986;2023-12-20T04:56:13;12.80;;;2.20;;
14817;SDS011;7500;57.698;11.986;2023-12-20T04:58:40;11.00;;;1.70;;
14817;SDS011;7500;57.698;11.986;2023-12-20T05:01:06;14.00;;;2.40;;
14817;SDS011;7500;57.698;11.986;2023-12-20T05:03:33;14.00;;;2.03;;
14817;SDS011;7500;57.698;11.986;2023-12-20T05:05:59;9.37;;;1.97;;
14817;SDS011;7500;57.698;11.986;2023-12-20T05:08:26;13.30;;;2.60;;
14817;SDS011;7500;57.698;11.986;2023-12-20T05:10:53;11.47;;;2.57;;
14817;SDS011;7500;57.698;11.986;2023-12-20T05:13:21;14.33;;;2.40;;
14817;SDS011;7500;57.698;11.986;2023-12-20T05:15:48;16.93;;;2.63;;
14817;SDS011;7500;57.698;11.986;2023-12-20T05:18:14;9.43;;;2.47;;
14817;SDS011;7500;57.698;11.986;2023-12-20T05:20:41;18.43;;;2.60;;
14817;SDS011;7500;57.698;11.986;2023-12-20T05:23:07;13.97;;;2.67;;
14817;SDS011;7500;57.698;11.986;2023-12-20T05:25:34;13.23;;;2.50;;
14817;SDS011;7500;57.698;11.986;2023-12-20T05:28:00;14.20;;;2.80;;
14817;SDS011;7500;57.698;11.986;2023-12-20T05:30:28;11.83;;;2.30;;
14817;SDS011;7500;57.698;11.986;2023-12-20T05:32:55;16.00;;;2.33;;
14817;SDS011;7500;57.698;11.986;2023-12-20T05:35:21;17.90;;;2.67;;
14817;SDS011;7500;57.698;11.986;2023-12-20T05:37:48;17.87;;;2.60;;
14817;SDS011;7500;57.698;11.986;2023-12-20T05:40:15;18.30;;;2.60;;
14817;SDS011;7500;57.698;11.986;2023-12-20T05:42:41;11.63;;;2.10;;
14817;SDS011;7500;57.698;11.986;2023-12-20T05:45:08;15.57;;;2.33;;
14817;SDS011;7500;57.698;11.986;2023-12-20T05:47:37;13.60;;;2.47;;
14817;SDS011;7500;57.698;11.986;2023-12-20T05:50:04;16.13;;;2.60;;
14817;SDS011;7500;57.698;11.986;2023-12-20T05:52:30;16.03;;;2.67;;
14817;SDS011;7500;57.698;11.986;2023-12-20T05:54:57;16.17;;;2.27;;
14817;SDS011;7500;57.698;11.986;2023-12-20T05:57:26;14.33;;;2.30;;
14817;SDS011;7500;57.698;11.986;2023-12-20T05:59:52;11.37;;;1.90;;
14817;SDS011;7500;57.698;11.986;2023-12-20T06:02:19;13.53;;;2.17;;
14817;SDS011;7500;57.698;11.986;2023-12-20T06:04:47;13.53;;;2.20;;
14817;SDS011;7500;57.698;11.986;2023-12-20T06:07:13;9.07;;;2.20;;
14817;SDS011;7500;57.698;11.986;2023-12-20T06:09:40;12.67;;;2.13;;
14817;SDS011;7500;57.698;11.986;2023-12-20T06:12:07;10.60;;;2.03;;
14817;SDS011;7500;57.698;11.986;2023-12-20T06:14:34;9.87;;;2.23;;
14817;SDS011;7500;57.698;11.986;2023-12-20T06:17:01;12.60;;;2.40;;
14817;SDS011;7500;57.698;11.986;2023-12-20T06:19:27;9.87;;;1.80;;
14817;SDS011;7500;57.698;11.986;2023-12-20T06:21:55;13.97;;;2.20;;
14817;SDS011;7500;57.698;11.986;2023-12-20T06:24:22;8.20;;;2.30;;
14817;SDS011;7500;57.698;11.986;2023-12-20T06:26:52;10.73;;;1.67;;
14817;SDS011;7500;57.698;11.986;2023-12-20T06:29:18;8.70;;;1.80;;
14817;SDS011;7500;57.698;11.986;2023-12-20T06:31:45;9.07;;;1.80;;
14817;SDS011;7500;57.698;11.986;2023-12-20T06:34:12;11.63;;;1.73;;
14817;SDS011;7500;57.698;11.986;2023-12-20T06:36:38;12.47;;;1.87;;
14817;SDS011;7500;57.698;11.986;2023-12-20T06:39:06;9.30;;;1.80;;
14817;SDS011;7500;57.698;11.986;2023-12-20T06:41:33;9.33;;;1.70;;
14817;SDS011;7500;57.698;11.986;2023-12-20T06:44:00;9.87;;;2.43;;
14817;SDS011;7500;57.698;11.986;2023-12-20T06:46:26;10.50;;;1.90;;
14817;SDS011;7500;57.698;11.986;2023-12-20T06:48:53;13.03;;;2.10;;
14817;SDS011;7500;57.698;11.986;2023-12-20T06:51:20;9.37;;;2.10;;
14817;SDS011;7500;57.698;11.986;2023-12-20T06:53:50;13.90;;;2.10;;
14817;SDS011;7500;57.698;11.986;2023-12-20T06:56:18;14.90;;;2.20;;
14817;SDS011;7500;57.698;11.986;2023-12-20T06:58:44;13.07;;;2.07;;
14817;SDS011;7500;57.698;11.986;2023-12-20T07:01:11;15.40;;;2.57;;
14817;SDS011;7500;57.698;11.986;2023-12-20T07:03:38;15.73;;;2.30;;
14817;SDS011;7500;57.698;11.986;2023-12-20T07:06:04;11.53;;;2.43;;
14817;SDS011;7500;57.698;11.986;2023-12-20T07:08:31;18.40;;;2.33;;
14817;SDS011;7500;57.698;11.986;2023-12-20T07:10:58;11.60;;;1.93;;
14817;SDS011;7500;57.698;11.986;2023-12-20T07:13:26;8.13;;;1.97;;
14817;SDS011;7500;57.698;11.986;2023-12-20T07:15:53;9.57;;;1.73;;
14817;SDS011;7500;57.698;11.986;2023-12-20T07:18:20;10.07;;;1.90;;
14817;SDS011;7500;57.698;11.986;2023-12-20T07:20:47;10.67;;;1.63;;
14817;SDS011;7500;57.698;11.986;2023-12-20T07:23:13;10.70;;;2.03;;
14817;SDS011;7500;57.698;11.986;2023-12-20T07:25:40;12.63;;;2.10;;
14817;SDS011;7500;57.698;11.986;2023-12-20T07:28:06;11.00;;;2.40;;
14817;SDS011;7500;57.698;11.986;2023-12-20T07:30:34;9.73;;;1.90;;
14817;SDS011;7500;57.698;11.986;2023-12-20T07:33:01;11.90;;;2.70;;
14817;SDS011;7500;57.698;11.986;2023-12-20T07:35:28;12.57;;;2.00;;
14817;SDS011;7500;57.698;11.986;2023-12-20T07:37:54;9.90;;;2.20;;
14817;SDS011;7500;57.698;11.986;2023-12-20T07:40:21;15.77;;;2.07;;
14817;SDS011;7500;57.698;11.986;2023-12-20T07:42:48;10.60;;;1.80;;
14817;SDS011;7500;57.698;11.986;2023-12-20T07:45:15;7.53;;;2.00;;
14817;SDS011;7500;57.698;11.986;2023-12-20T07:47:43;12.10;;;2.03;;
14817;SDS011;7500;57.698;11.986;2023-12-20T07:50:09;11.33;;;2.00;;
14817;SDS011;7500;57.698;11.986;2023-12-20T07:52:36;14.93;;;2.97;;
14817;SDS011;7500;57.698;11.986;2023-12-20T07:55:03;12.37;;;2.47;;
14817;SDS011;7500;57.698;11.986;2023-12-20T07:57:30;12.67;;;2.80;;
14817;SDS011;7500;57.698;11.986;2023-12-20T07:59:57;16.47;;;2.73;;
14817;SDS011;7500;57.698;11.986;2023-12-20T08:02:23;13.37;;;2.27;;
14817;SDS011;7500;57.698;11.986;2023-12-20T08:04:51;11.50;;;2.27;;
14817;SDS011;7500;57.698;11.986;2023-12-20T08:07:17;12.90;;;2.40;;
14817;SDS011;7500;57.698;11.986;2023-12-20T08:09:44;10.77;;;2.27;;
14817;SDS011;7500;57.698;11.986;2023-12-20T08:12:11;16.37;;;2.50;;
14817;SDS011;7500;57.698;11.986;2023-12-20T08:14:37;18.97;;;2.50;;
14817;SDS011;7500;57.698;11.986;2023-12-20T08:17:04;20.87;;;3.00;;
14817;SDS011;7500;57.698;11.986;2023-12-20T08:19:30;11.37;;;2.53;;
14817;SDS011;7500;57.698;11.986;2023-12-20T08:21:59;15.40;;;2.73;;
14817;SDS011;7500;57.698;11.986;2023-12-20T08:24:25;17.03;;;2.93;;
14817;SDS011;7500;57.698;11.986;2023-12-20T08:26:52;17.17;;;2.77;;
14817;SDS011;7500;57.698;11.986;2023-12-20T08:29:18;12.77;;;2.23;;
14817;SDS011;7500;57.698;11.986;2023-12-20T08:31:46;14.33;;;2.57;;
14817;SDS011;7500;57.698;11.986;2023-12-20T08:34:12;20.50;;;2.57;;
14817;SDS011;7500;57.698;11.986;2023-12-20T08:36:40;16.20;;;2.50;;
14817;SDS011;7500;57.698;11.986;2023-12-20T08:39:07;13.97;;;2.47;;
14817;SDS011;7500;57.698;11.986;2023-12-20T08:41:34;14.10;;;2.63;;
14817;SDS011;7500;57.698;11.986;2023-12-20T08:44:01;21.07;;;3.03;;
14817;SDS011;7500;57.698;11.986;2023-12-20T08:46:28;16.03;;;3.03;;
14817;SDS011;7500;57.698;11.986;2023-12-20T08:48:54;18.05;;;2.80;;
14817;SDS011;7500;57.698;11.986;2023-12-20T08:51:21;10.53;;;2.57;;
14817;SDS011;7500;57.698;11.986;2023-12-20T08:53:50;17.13;;;2.67;;
14817;SDS011;7500;57.698;11.986;2023-12-20T08:56:18;17.27;;;3.00;;
14817;SDS011;7500;57.698;11.986;2023-12-20T08:58:45;11.27;;;2.50;;
14817;SDS011;7500;57.698;11.986;2023-12-20T09:01:12;17.67;;;2.10;;
14817;SDS011;7500;57.698;11.986;2023-12-20T09:03:38;19.57;;;3.47;;
14817;SDS011;7500;57.698;11.986;2023-12-20T09:06:05;17.47;;;2.90;;
14817;SDS011;7500;57.698;11.986;2023-12-20T09:08:32;14.87;;;3.00;;
14817;SDS011;7500;57.698;11.986;2023-12-20T09:10:59;18.53;;;2.97;;
14817;SDS011;7500;57.698;11.986;2023-12-20T09:13:27;18.03;;;2.60;;
14817;SDS011;7500;57.698;11.986;2023-12-20T09:15:53;19.57;;;3.63;;
14817;SDS011;7500;57.698;11.986;2023-12-20T09:18:20;11.67;;;2.80;;
14817;SDS011;7500;57.698;11.986;2023-12-20T09:20:48;16.20;;;3.00;;
14817;SDS011;7500;57.698;11.986;2023-12-20T09:23:15;10.70;;;2.70;;
14817;SDS011;7500;57.698;11.986;2023-12-20T09:25:42;20.00;;;3.20;;
14817;SDS011;7500;57.698;11.986;2023-12-20T09:28:08;20.87;;;3.20;;
14817;SDS011;7500;57.698;11.986;2023-12-20T09:30:37;16.07;;;3.57;;
14817;SDS011;7500;57.698;11.986;2023-12-20T09:33:05;16.27;;;3.50;;
14817;SDS011;7500;57.698;11.986;2023-12-20T09:35:32;15.37;;;3.40;;
14817;SDS011;7500;57.698;11.986;2023-12-20T09:37:58;18.47;;;3.30;;
14817;SDS011;7500;57.698;11.986;2023-12-20T09:40:25;19.23;;;3.50;;
14817;SDS011;7500;57.698;11.986;2023-12-20T09:42:55;11.37;;;2.87;;
14817;SDS011;7500;57.698;11.986;2023-12-20T09:45:22;17.90;;;3.40;;
14817;SDS011;7500;57.698;11.986;2023-12-20T09:47:50;17.50;;;4.00;;
14817;SDS011;7500;57.698;11.986;2023-12-20T09:50:17;18.43;;;3.57;;
14817;SDS011;7500;57.698;11.986;2023-12-20T09:52:44;15.30;;;3.10;;
14817;SDS011;7500;57.698;11.986;2023-12-20T09:55:12;22.40;;;3.53;;
14817;SDS011;7500;57.698;11.986;2023-12-20T09:57:39;20.53;;;3.67;;
14817;SDS011;7500;57.698;11.986;2023-12-20T10:00:06;14.73;;;3.07;;
14817;SDS011;7500;57.698;11.986;2023-12-20T10:02:33;19.40;;;3.57;;
14817;SDS011;7500;57.698;11.986;2023-12-20T10:05:02;21.60;;;3.93;;
14817;SDS011;7500;57.698;11.986;2023-12-20T10:07:28;16.50;;;3.73;;
14817;SDS011;7500;57.698;11.986;2023-12-20T10:09:55;21.30;;;3.50;;
14817;SDS011;7500;57.698;11.986;2023-12-20T10:12:22;11.13;;;2.90;;
14817;SDS011;7500;57.698;11.986;2023-12-20T10:14:48;21.77;;;4.00;;
14817;SDS011;7500;57.698;11.986;2023-12-20T10:17:16;24.77;;;4.20;;
14817;SDS011;7500;57.698;11.986;2023-12-20T10:19:42;25.10;;;3.90;;
14817;SDS011;7500;57.698;11.986;2023-12-20T10:22:10;23.33;;;4.27;;
14817;SDS011;7500;57.698;11.986;2023-12-20T10:24:37;16.83;;;3.63;;
14817;SDS011;7500;57.698;11.986;2023-12-20T10:27:04;14.13;;;3.00;;
14817;SDS011;7500;57.698;11.986;2023-12-20T10:29:33;17.00;;;3.47;;
14817;SDS011;7500;57.698;11.986;2023-12-20T10:32:02;16.60;;;3.83;;
14817;SDS011;7500;57.698;11.986;2023-12-20T10:34:47;20.50;;;3.10;;
14817;SDS011;7500;57.698;11.986;2023-12-20T10:37:15;18.13;;;3.47;;
14817;SDS011;7500;57.698;11.986;2023-12-20T10:39:41;17.20;;;3.57;;
14817;SDS011;7500;57.698;11.986;2023-12-20T10:42:08;16.23;;;3.03;;
14817;SDS011;7500;57.698;11.986;2023-12-20T10:44:35;18.13;;;4.20;;
14817;SDS011;7500;57.698;11.986;2023-12-20T10:47:02;26.90;;;3.90;;
14817;SDS011;7500;57.698;11.986;2023-12-20T10:49:30;12.80;;;3.47;;
14817;SDS011;7500;57.698;11.986;2023-12-20T10:51:56;19.00;;;4.20;;
14817;SDS011;7500;57.698;11.986;2023-12-20T10:54:24;19.13;;;3.83;;
14817;SDS011;7500;57.698;11.986;2023-12-20T10:56:51;20.80;;;3.80;;
14817;SDS011;7500;57.698;11.986;2023-12-20T10:59:18;13.33;;;3.30;;
14817;SDS011;7500;57.698;11.986;2023-12-20T11:01:47;20.00;;;3.47;;
14817;SDS011;7500;57.698;11.986;2023-12-20T11:04:15;17.30;;;3.90;;
14817;SDS011;7500;57.698;11.986;2023-12-20T11:06:46;21.80;;;4.63;;
14817;SDS011;7500;57.698;11.986;2023-12-20T11:09:14;14.30;;;3.37;;
14817;SDS011;7500;57.698;11.986;2023-12-20T11:11:55;15.97;;;4.00;;
14817;SDS011;7500;57.698;11.986;2023-12-20T11:14:23;26.20;;;3.77;;
14817;SDS011;7500;57.698;11.986;2023-12-20T11:17:00;18.57;;;4.07;;
14817;SDS011;7500;57.698;11.986;2023-12-20T11:19:31;22.87;;;4.50;;
14817;SDS011;7500;57.698;11.986;2023-12-20T11:21:57;15.33;;;4.83;;
14817;SDS011;7500;57.698;11.986;2023-12-20T11:24:24;13.67;;;3.80;;
14817;SDS011;7500;57.698;11.986;2023-12-20T11:26:56;19.83;;;4.40;;
14817;SDS011;7500;57.698;11.986;2023-12-20T11:29:29;17.87;;;5.13;;
14817;SDS011;7500;57.698;11.986;2023-12-20T11:31:55;17.87;;;4.87;;
14817;SDS011;7500;57.698;11.986;2023-12-20T11:34:22;15.60;;;4.30;;
14817;SDS011;7500;57.698;11.986;2023-12-20T11:36:56;16.50;;;4.43;;
14817;SDS011;7500;57.698;11.986;2023-12-20T11:39:23;19.40;;;5.53;;
14817;SDS011;7500;57.698;11.986;2023-12-20T11:41:49;14.57;;;4.77;;
14817;SDS011;7500;57.698;11.986;2023-12-20T11:44:18;12.13;;;4.73;;
14817;SDS011;7500;57.698;11.986;2023-12-20T11:46:45;14.03;;;4.33;;
14817;SDS011;7500;57.698;11.986;2023-12-20T11:49:12;14.07;;;4.40;;
14817;SDS011;7500;57.698;11.986;2023-12-20T11:51:40;16.63;;;4.80;;
14817;SDS011;7500;57.698;11.986;2023-12-20T11:54:07;10.70;;;3.77;;
14817;SDS011;7500;57.698;11.986;2023-12-20T11:56:34;15.33;;;4.33;;
14817;SDS011;7500;57.698;11.986;2023-12-20T11:59:01;15.10;;;4.40;;
14817;SDS011;7500;57.698;11.986;2023-12-20T12:01:29;15.37;;;3.93;;
14817;SDS011;7500;57.698;11.986;2023-12-20T12:04:03;12.20;;;4.33;;
14817;SDS011;7500;57.698;11.986;2023-12-20T12:06:29;15.63;;;4.03;;
14817;SDS011;7500;57.698;11.986;2023-12-20T12:08:56;14.67;;;4.57;;
14817;SDS011;7500;57.698;11.986;2023-12-20T12:11:23;11.20;;;4.10;;
14817;SDS011;7500;57.698;11.986;2023-12-20T12:13:50;13.37;;;3.90;;
14817;SDS011;7500;57.698;11.986;2023-12-20T12:16:16;15.80;;;4.60;;
14817;SDS011;7500;57.698;11.986;2023-12-20T12:18:44;14.73;;;4.03;;
14817;SDS011;7500;57.698;11.986;2023-12-20T12:21:18;14.53;;;4.47;;
14817;SDS011;7500;57.698;11.986;2023-12-20T12:23:45;18.00;;;6.93;;
14817;SDS011;7500;57.698;11.986;2023-12-20T12:26:11;10.90;;;3.30;;
14817;SDS011;7500;57.698;11.986;2023-12-20T12:28:39;13.33;;;3.67;;
14817;SDS011;7500;57.698;11.986;2023-12-20T12:31:06;10.03;;;3.10;;
14817;SDS011;7500;57.698;11.986;2023-12-20T12:33:33;15.57;;;4.63;;
14817;SDS011;7500;57.698;11.986;2023-12-20T12:36:01;10.47;;;3.63;;
14817;SDS011;7500;57.698;11.986;2023-12-20T12:38:29;11.10;;;3.53;;
14817;SDS011;7500;57.698;11.986;2023-12-20T12:40:56;13.30;;;3.73;;
14817;SDS011;7500;57.698;11.986;2023-12-20T12:43:23;11.70;;;3.90;;
14817;SDS011;7500;57.698;11.986;2023-12-20T12:45:50;13.40;;;3.80;;
14817;SDS011;7500;57.698;11.986;2023-12-20T12:48:16;14.07;;;3.77;;
14817;SDS011;7500;57.698;11.986;2023-12-20T12:50:43;12.33;;;3.77;;
14817;SDS011;7500;57.698;11.986;2023-12-20T12:53:11;12.60;;;3.97;;
14817;SDS011;7500;57.698;11.986;2023-12-20T12:55:38;10.53;;;3.47;;
14817;SDS011;7500;57.698;11.986;2023-12-20T12:58:04;9.37;;;3.10;;
14817;SDS011;7500;57.698;11.986;2023-12-20T13:00:31;12.70;;;3.43;;
14817;SDS011;7500;57.698;11.986;2023-12-20T13:02:58;12.53;;;3.00;;
14817;SDS011;7500;57.698;11.986;2023-12-20T13:05:24;9.07;;;2.73;;
14817;SDS011;7500;57.698;11.986;2023-12-20T13:07:51;7.77;;;3.33;;
14817;SDS011;7500;57.698;11.986;2023-12-20T13:10:19;12.27;;;3.77;;
14817;SDS011;7500;57.698;11.986;2023-12-20T13:12:45;6.77;;;3.00;;
14817;SDS011;7500;57.698;11.986;2023-12-20T13:15:12;9.90;;;3.13;;
14817;SDS011;7500;57.698;11.986;2023-12-20T13:17:38;9.47;;;2.80;;
14817;SDS011;7500;57.698;11.986;2023-12-20T13:20:05;12.47;;;3.13;;
14817;SDS011;7500;57.698;11.986;2023-12-20T13:22:32;9.43;;;3.00;;
14817;SDS011;7500;57.698;11.986;2023-12-20T13:24:59;12.33;;;3.67;;
14817;SDS011;7500;57.698;11.986;2023-12-20T13:27:27;10.60;;;3.47;;
14817;SDS011;7500;57.698;11.986;2023-12-20T13:29:54;12.00;;;3.50;;
14817;SDS011;7500;57.698;11.986;2023-12-20T13:32:20;9.00;;;3.17;;
14817;SDS011;7500;57.698;11.986;2023-12-20T13:34:47;10.57;;;3.43;;
14817;SDS011;7500;57.698;11.986;2023-12-20T13:37:13;12.40;;;3.33;;
14817;SDS011;7500;57.698;11.986;2023-12-20T13:39:40;9.13;;;3.30;;
14817;SDS011;7500;57.698;11.986;2023-12-20T13:42:07;10.30;;;3.67;;
14817;SDS011;7500;57.698;11.986;2023-12-20T13:44:35;9.90;;;3.83;;
14817;SDS011;7500;57.698;11.986;2023-12-20T13:47:02;13.57;;;3.70;;
14817;SDS011;7500;57.698;11.986;2023-12-20T13:49:29;14.93;;;4.00;;
14817;SDS011;7500;57.698;11.986;2023-12-20T13:51:55;12.03;;;3.80;;
14817;SDS011;7500;57.698;11.986;2023-12-20T13:54:22;9.70;;;3.40;;
14817;SDS011;7500;57.698;11.986;2023-12-20T13:56:49;11.53;;;4.33;;
14817;SDS011;7500;57.698;11.986;2023-12-20T13:59:16;12.37;;;3.80;;
14817;SDS011;7500;57.698;11.986;2023-12-20T14:01:44;8.30;;;3.70;;
14817;SDS011;7500;57.698;11.986;2023-12-20T14:04:11;12.77;;;4.00;;
14817;SDS011;7500;57.698;11.986;2023-12-20T14:06:37;13.07;;;3.77;;
14817;SDS011;7500;57.698;11.986;2023-12-20T14:09:03;8.43;;;3.50;;
14817;SDS011;7500;57.698;11.986;2023-12-20T14:11:29;8.20;;;4.10;;
14817;SDS011;7500;57.698;11.986;2023-12-20T14:13:56;14.77;;;4.50;;
14817;SDS011;7500;57.698;11.986;2023-12-20T14:16:23;10.17;;;5.50;;
14817;SDS011;7500;57.698;11.986;2023-12-20T14:18:51;11.17;;;3.77;;
14817;SDS011;7500;57.698;11.986;2023-12-20T14:21:18;7.70;;;4.60;;
14817;SDS011;7500;57.698;11.986;2023-12-20T14:23:45;12.87;;;5.40;;
14817;SDS011;7500;57.698;11.986;2023-12-20T14:26:11;9.47;;;5.07;;
14817;SDS011;7500;57.698;11.986;2023-12-20T14:28:40;10.37;;;5.00;;
14817;SDS011;7500;57.698;11.986;2023-12-20T14:31:06;14.87;;;4.80;;
14817;SDS011;7500;57.698;11.986;2023-12-20T14:33:33;11.97;;;4.87;;
14817;SDS011;7500;57.698;11.986;2023-12-20T14:36:01;11.10;;;5.30;;